createdAt,value
2018-01-10T00:01:51.086Z,5.10
2018-01-10T00:04:19.430Z,5.04
2018-01-10T00:06:47.753Z,5.05
2018-01-10T00:09:16.098Z,5.05
2018-01-10T00:11:44.418Z,5.01
2018-01-10T00:14:12.766Z,5.04
2018-01-10T00:16:41.097Z,5.04
2018-01-10T00:19:09.448Z,5.06
2018-01-10T00:21:37.766Z,5.02
2018-01-10T00:24:06.094Z,5.01
2018-01-10T00:26:34.441Z,4.98
2018-01-10T00:29:02.774Z,4.93
2018-01-10T00:31:31.117Z,4.94
2018-01-10T00:33:59.440Z,4.90
2018-01-10T00:36:27.786Z,4.89
2018-01-10T00:38:56.109Z,4.69
2018-01-10T00:41:24.458Z,4.78
2018-01-10T00:43:52.782Z,4.75
2018-01-10T00:46:21.125Z,4.72
2018-01-10T00:48:49.450Z,4.63
2018-01-10T00:51:17.799Z,4.61
2018-01-10T00:53:46.122Z,4.73
2018-01-10T00:56:14.470Z,4.69
2018-01-10T00:58:42.794Z,4.74
2018-01-10T01:01:11.138Z,4.78
2018-01-10T01:03:39.461Z,4.73
2018-01-10T01:06:07.806Z,4.74
2018-01-10T01:08:36.138Z,4.69
2018-01-10T01:11:04.482Z,4.66
2018-01-10T01:13:32.814Z,4.61
2018-01-10T01:16:01.159Z,4.55
2018-01-10T01:18:29.482Z,4.64
2018-01-10T01:20:57.831Z,4.46
2018-01-10T01:23:26.150Z,4.42
2018-01-10T01:25:54.494Z,4.48
2018-01-10T01:28:22.819Z,4.53
2018-01-10T01:30:51.161Z,4.66
2018-01-10T01:33:19.484Z,4.61
2018-01-10T01:35:47.830Z,4.68
2018-01-10T01:38:16.158Z,4.52
2018-01-10T01:40:44.502Z,4.54
2018-01-10T01:43:12.825Z,4.63
2018-01-10T01:45:41.169Z,4.40
2018-01-10T01:48:09.489Z,4.34
2018-01-10T01:50:37.834Z,4.19
2018-01-10T01:53:06.158Z,4.29
2018-01-10T01:55:34.506Z,4.23
2018-01-10T01:58:02.829Z,4.25
2018-01-10T02:00:31.169Z,4.16
2018-01-10T02:02:59.494Z,4.16
2018-01-10T02:05:27.837Z,4.26
2018-01-10T02:07:56.162Z,4.29
2018-01-10T02:10:24.506Z,4.30
2018-01-10T02:12:52.829Z,4.35
2018-01-10T02:15:21.174Z,4.35
2018-01-10T02:17:49.497Z,4.29
2018-01-10T02:20:17.850Z,4.16
2018-01-10T02:22:46.182Z,4.24
2018-01-10T02:25:14.506Z,3.87
2018-01-10T02:27:42.851Z,3.94
2018-01-10T02:30:11.170Z,3.83
2018-01-10T02:32:39.513Z,3.92
2018-01-10T02:35:07.842Z,3.88
2018-01-10T02:37:36.184Z,3.86
2018-01-10T02:40:04.506Z,3.80
2018-01-10T02:42:37.617Z,3.79
2018-01-10T02:45:05.945Z,3.94
2018-01-10T02:47:34.286Z,3.96
2018-01-10T02:50:02.610Z,3.93
2018-01-10T02:52:30.958Z,3.94
2018-01-10T02:54:59.284Z,4.09
2018-01-10T02:57:27.632Z,4.13
2018-01-10T02:59:55.954Z,4.13
2018-01-10T03:02:24.325Z,4.13
2018-01-10T03:04:52.631Z,4.17
2018-01-10T03:07:20.973Z,4.19
2018-01-10T03:09:49.297Z,4.24
2018-01-10T03:12:17.636Z,4.25
2018-01-10T03:14:45.962Z,4.14
2018-01-10T03:17:14.305Z,4.17
2018-01-10T03:19:42.636Z,4.18
2018-01-10T03:22:10.973Z,4.26
2018-01-10T03:24:39.299Z,4.18
2018-01-10T03:27:07.649Z,4.27
2018-01-10T03:29:35.969Z,4.30
2018-01-10T03:32:04.309Z,4.35
2018-01-10T03:34:32.629Z,4.41
2018-01-10T03:37:00.973Z,4.41
2018-01-10T03:39:29.298Z,4.40
2018-01-10T03:41:57.641Z,4.43
2018-01-10T03:44:25.965Z,4.41
2018-01-10T03:46:54.314Z,4.32
2018-01-10T03:49:22.637Z,4.47
2018-01-10T03:51:50.981Z,4.44
2018-01-10T03:54:19.307Z,4.48
2018-01-10T03:56:47.649Z,4.48
2018-01-10T03:59:15.970Z,4.54
2018-01-10T04:01:44.318Z,4.60
2018-01-10T04:04:12.646Z,4.56
2018-01-10T04:06:40.998Z,4.52
2018-01-10T04:09:09.322Z,4.45
2018-01-10T04:11:37.670Z,4.38
2018-01-10T04:14:05.989Z,4.40
2018-01-10T04:16:34.329Z,4.49
2018-01-10T04:19:02.654Z,4.44
2018-01-10T04:21:30.997Z,4.47
2018-01-10T04:23:59.328Z,4.50
2018-01-10T04:26:27.678Z,4.48
2018-01-10T04:28:56.001Z,4.53
2018-01-10T04:31:24.329Z,4.51
2018-01-10T04:33:52.672Z,4.60
2018-01-10T04:36:20.995Z,4.61
2018-01-10T04:38:49.347Z,4.76
2018-01-10T04:41:17.670Z,4.92
2018-01-10T04:43:46.015Z,5.03
2018-01-10T04:46:14.338Z,5.14
2018-01-10T04:48:42.681Z,5.23
2018-01-10T04:51:11.006Z,5.27
2018-01-10T04:53:39.349Z,5.29
2018-01-10T04:56:07.674Z,5.33
2018-01-10T04:58:36.018Z,5.34
2018-01-10T05:01:04.341Z,5.39
2018-01-10T05:03:32.687Z,5.44
2018-01-10T05:06:01.009Z,5.52
2018-01-10T05:08:29.354Z,5.52
2018-01-10T05:10:57.677Z,5.54
2018-01-10T05:13:26.025Z,5.54
2018-01-10T05:15:54.346Z,5.58
2018-01-10T05:18:22.694Z,5.52
2018-01-10T05:20:51.017Z,5.59
2018-01-10T05:23:19.357Z,5.60
2018-01-10T05:25:47.682Z,5.67
2018-01-10T05:28:16.030Z,5.64
2018-01-10T05:30:44.354Z,5.65
2018-01-10T05:33:12.697Z,5.61
2018-01-10T05:35:41.021Z,5.64
2018-01-10T05:38:09.374Z,5.61
2018-01-10T05:40:37.703Z,5.59
2018-01-10T05:43:06.054Z,5.65
2018-01-10T05:45:35.326Z,5.63
2018-01-10T05:48:03.670Z,5.65
2018-01-10T05:50:31.997Z,5.67
2018-01-10T05:53:00.345Z,5.67
2018-01-10T05:55:28.669Z,5.70
2018-01-10T05:57:57.021Z,5.72
2018-01-10T06:00:25.349Z,5.87
2018-01-10T06:02:53.693Z,5.94
2018-01-10T06:05:22.026Z,5.91
2018-01-10T06:07:50.375Z,5.93
2018-01-10T06:10:18.730Z,5.91
2018-01-10T06:12:48.391Z,5.91
2018-01-10T06:15:16.722Z,5.99
2018-01-10T06:17:45.650Z,6.05
2018-01-10T06:20:14.051Z,6.10
2018-01-10T06:22:42.699Z,6.10
2018-01-10T06:25:11.074Z,6.11
2018-01-10T06:27:39.417Z,6.18
2018-01-10T06:30:10.369Z,6.06
2018-01-10T06:32:38.724Z,6.15
2018-01-10T06:35:07.081Z,6.11
2018-01-10T06:37:36.953Z,6.07
2018-01-10T06:40:06.268Z,6.13
2018-01-10T06:42:34.578Z,6.16
2018-01-10T06:45:02.944Z,6.26
2018-01-10T06:47:31.306Z,6.23
2018-01-10T06:49:59.783Z,6.20
2018-01-10T06:52:28.098Z,6.25
2018-01-10T06:54:56.459Z,6.37
2018-01-10T06:57:25.511Z,6.28
2018-01-10T06:59:53.891Z,6.27
2018-01-10T07:02:22.241Z,6.38
2018-01-10T07:04:50.591Z,6.37
2018-01-10T07:07:19.019Z,6.29
2018-01-10T07:09:47.377Z,6.34
2018-01-10T07:12:15.707Z,6.35
2018-01-10T07:14:44.063Z,6.46
2018-01-10T07:17:12.390Z,6.48
2018-01-10T07:19:40.739Z,6.57
2018-01-10T07:22:09.065Z,6.57
2018-01-10T07:24:37.410Z,6.50
2018-01-10T07:27:05.744Z,6.54
2018-01-10T07:29:34.091Z,6.38
2018-01-10T07:32:02.415Z,6.48
2018-01-10T07:34:30.766Z,6.42
2018-01-10T07:36:59.095Z,6.46
2018-01-10T07:39:27.447Z,6.36
2018-01-10T07:41:55.778Z,6.36
2018-01-10T07:44:24.140Z,6.34
2018-01-10T07:46:52.470Z,6.36
2018-01-10T07:49:20.809Z,6.29
2018-01-10T07:51:49.138Z,6.25
2018-01-10T07:54:17.498Z,6.28
2018-01-10T07:56:45.827Z,6.12
2018-01-10T07:59:14.169Z,6.17
2018-01-10T08:01:42.502Z,6.16
2018-01-10T08:04:10.859Z,6.14
2018-01-10T08:06:39.189Z,6.01
2018-01-10T08:09:07.543Z,5.96
2018-01-10T08:11:35.867Z,5.93
2018-01-10T08:14:04.215Z,5.93
2018-01-10T08:16:32.543Z,5.95
2018-01-10T08:19:00.900Z,5.94
2018-01-10T08:21:29.217Z,6.00
2018-01-10T08:23:57.562Z,5.99
2018-01-10T08:26:25.885Z,5.90
2018-01-10T08:28:54.229Z,5.86
2018-01-10T08:31:22.554Z,5.97
2018-01-10T08:33:50.904Z,5.97
2018-01-10T08:36:19.227Z,5.85
2018-01-10T08:38:47.578Z,5.90
2018-01-10T08:41:15.922Z,5.92
2018-01-10T08:43:44.250Z,5.91
2018-01-10T08:46:12.598Z,6.04
2018-01-10T08:48:40.923Z,6.12
2018-01-10T08:51:09.266Z,6.23
2018-01-10T08:53:37.589Z,6.37
2018-01-10T08:56:05.943Z,6.44
2018-01-10T08:58:34.266Z,6.53
2018-01-10T09:01:02.617Z,6.59
2018-01-10T09:03:30.942Z,6.72
2018-01-10T09:05:59.286Z,6.76
2018-01-10T09:08:27.616Z,6.85
2018-01-10T09:10:55.962Z,6.94
2018-01-10T09:13:24.290Z,7.05
2018-01-10T09:15:52.641Z,7.00
2018-01-10T09:18:20.975Z,7.11
2018-01-10T09:20:49.314Z,7.12
2018-01-10T09:23:17.647Z,7.04
2018-01-10T09:25:45.996Z,7.19
2018-01-10T09:28:14.332Z,7.17
2018-01-10T09:30:42.679Z,7.10
2018-01-10T09:33:11.009Z,7.24
2018-01-10T09:35:39.358Z,7.26
2018-01-10T09:38:07.682Z,7.31
2018-01-10T09:40:36.034Z,7.23
2018-01-10T09:43:04.371Z,7.30
2018-01-10T09:45:32.715Z,7.31
2018-01-10T09:48:01.039Z,7.18
2018-01-10T09:50:29.382Z,7.20
2018-01-10T09:52:57.709Z,7.17
2018-01-10T09:55:26.054Z,7.14
2018-01-10T09:57:54.378Z,7.04
2018-01-10T10:00:22.722Z,7.07
2018-01-10T10:02:51.057Z,7.08
2018-01-10T10:05:19.402Z,7.17
2018-01-10T10:07:47.730Z,7.13
2018-01-10T10:10:16.078Z,7.20
2018-01-10T10:12:44.412Z,7.31
2018-01-10T10:15:12.762Z,7.36
2018-01-10T10:17:41.094Z,7.32
2018-01-10T10:20:09.445Z,7.38
2018-01-10T10:22:37.778Z,7.38
2018-01-10T10:25:06.129Z,7.38
2018-01-10T10:27:34.458Z,7.52
2018-01-10T10:30:02.811Z,7.34
2018-01-10T10:32:31.134Z,7.46
2018-01-10T10:34:59.482Z,7.61
2018-01-10T10:37:27.805Z,7.72
2018-01-10T10:39:56.139Z,7.85
2018-01-10T10:42:24.481Z,7.92
2018-01-10T10:44:52.807Z,7.99
2018-01-10T10:47:21.151Z,8.11
2018-01-10T10:49:49.482Z,8.23
2018-01-10T10:52:18.084Z,8.30
2018-01-10T10:54:46.486Z,8.35
2018-01-10T10:57:14.844Z,8.39
2018-01-10T10:59:43.173Z,8.50
2018-01-10T11:02:11.526Z,8.50
2018-01-10T11:04:40.066Z,8.53
2018-01-10T11:07:08.413Z,8.57
2018-01-10T11:09:36.743Z,8.65
2018-01-10T11:12:05.089Z,8.80
2018-01-10T11:14:33.418Z,8.85
2018-01-10T11:17:01.774Z,8.92
2018-01-10T11:19:30.110Z,8.96
2018-01-10T11:21:58.462Z,8.94
2018-01-10T11:24:26.786Z,8.90
2018-01-10T11:26:55.134Z,8.86
2018-01-10T11:29:23.462Z,8.94
2018-01-10T11:31:51.817Z,8.96
2018-01-10T11:34:20.151Z,9.12
2018-01-10T11:36:48.493Z,9.14
2018-01-10T11:39:16.821Z,9.06
2018-01-10T11:41:45.177Z,9.14
2018-01-10T11:44:13.506Z,9.19
2018-01-10T11:46:41.855Z,9.15
2018-01-10T11:49:10.188Z,8.79
2018-01-10T11:51:38.530Z,8.67
2018-01-10T11:54:06.855Z,8.53
2018-01-10T11:56:35.206Z,8.58
2018-01-10T11:59:03.531Z,8.63
2018-01-10T12:01:31.877Z,8.70
2018-01-10T12:04:00.201Z,8.58
2018-01-10T12:06:28.546Z,8.62
2018-01-10T12:08:56.867Z,8.51
2018-01-10T12:11:25.210Z,8.46
2018-01-10T12:13:53.538Z,8.45
2018-01-10T12:16:21.881Z,8.47
2018-01-10T12:18:50.197Z,8.32
2018-01-10T12:21:19.246Z,8.44
2018-01-10T12:23:47.565Z,8.39
2018-01-10T12:26:15.907Z,8.33
2018-01-10T12:28:44.226Z,8.43
2018-01-10T12:31:12.751Z,8.56
2018-01-10T12:33:41.079Z,8.68
2018-01-10T12:36:09.411Z,8.85
2018-01-10T12:38:37.729Z,8.96
2018-01-10T12:41:06.050Z,8.92
2018-01-10T12:43:34.403Z,8.92
2018-01-10T12:46:02.726Z,8.96
2018-01-10T12:48:31.061Z,8.94
2018-01-10T12:50:59.390Z,8.78
2018-01-10T12:53:27.730Z,8.66
2018-01-10T12:55:56.057Z,8.49
2018-01-10T12:58:24.408Z,8.54
2018-01-10T13:00:52.730Z,8.36
2018-01-10T13:03:21.074Z,8.45
2018-01-10T13:05:49.397Z,8.38
2018-01-10T13:08:17.739Z,8.37
2018-01-10T13:10:46.058Z,8.44
2018-01-10T13:13:14.399Z,8.53
2018-01-10T13:15:42.722Z,8.60
2018-01-10T13:18:11.070Z,8.62
2018-01-10T13:20:39.385Z,8.71
2018-01-10T13:23:07.731Z,8.79
2018-01-10T13:25:36.049Z,8.77
2018-01-10T13:28:04.398Z,8.88
2018-01-10T13:30:32.718Z,9.00
2018-01-10T13:33:01.094Z,8.95
2018-01-10T13:35:29.430Z,8.92
2018-01-10T13:37:57.780Z,8.86
2018-01-10T13:40:26.110Z,8.85
2018-01-10T13:42:54.455Z,8.64
2018-01-10T13:45:22.781Z,8.61
2018-01-10T13:47:51.138Z,8.64
2018-01-10T13:50:19.478Z,8.59
2018-01-10T13:52:47.826Z,8.57
2018-01-10T13:55:16.190Z,8.64
2018-01-10T13:57:44.530Z,8.71
2018-01-10T14:00:13.763Z,8.91
2018-01-10T14:02:42.094Z,8.96
2018-01-10T14:05:10.417Z,8.94
2018-01-10T14:07:39.022Z,9.00
2018-01-10T14:10:07.330Z,9.07
2018-01-10T14:12:35.688Z,9.15
2018-01-10T14:15:04.006Z,9.17
2018-01-10T14:17:32.350Z,9.34
2018-01-10T14:20:00.682Z,9.32
2018-01-10T14:22:29.145Z,9.33
2018-01-10T14:24:57.480Z,9.25
2018-01-10T14:27:25.843Z,9.28
2018-01-10T14:29:54.163Z,9.27
2018-01-10T14:32:22.502Z,9.26
2018-01-10T14:34:50.830Z,9.19
2018-01-10T14:37:19.177Z,9.30
2018-01-10T14:39:47.505Z,9.29
2018-01-10T14:42:15.826Z,9.34
2018-01-10T14:44:44.171Z,9.24
2018-01-10T14:47:12.495Z,9.26
2018-01-10T14:49:40.848Z,9.15
2018-01-10T14:52:09.165Z,9.09
2018-01-10T14:54:38.538Z,8.90
2018-01-10T14:57:06.890Z,8.91
2018-01-10T14:59:35.231Z,8.96
2018-01-10T15:02:03.554Z,8.79
2018-01-10T15:04:31.902Z,8.88
2018-01-10T15:07:00.242Z,8.82
2018-01-10T15:09:28.583Z,8.79
2018-01-10T15:11:56.930Z,8.95
2018-01-10T15:14:25.292Z,8.84
2018-01-10T15:16:53.623Z,8.80
2018-01-10T15:19:21.966Z,8.84
2018-01-10T15:21:50.289Z,8.76
2018-01-10T15:24:18.661Z,8.68
2018-01-10T15:26:46.973Z,8.53
2018-01-10T15:29:15.370Z,8.26
2018-01-10T15:31:43.708Z,8.21
2018-01-10T15:34:12.070Z,8.22
2018-01-10T15:36:40.454Z,8.31
2018-01-10T15:39:08.798Z,8.39
2018-01-10T15:41:37.130Z,8.17
2018-01-10T15:44:05.550Z,8.14
2018-01-10T15:46:33.861Z,8.12
2018-01-10T15:49:02.291Z,7.95
2018-01-10T15:51:30.706Z,7.99
2018-01-10T15:53:59.262Z,8.10
2018-01-10T15:56:27.767Z,8.11
2018-01-10T15:58:56.146Z,7.99
2018-01-10T16:01:24.534Z,8.08
2018-01-10T16:03:52.935Z,8.14
2018-01-10T16:06:21.498Z,8.10
2018-01-10T16:08:50.039Z,8.07
2018-01-10T16:11:19.410Z,7.76
2018-01-10T16:13:47.846Z,7.72
2018-01-10T16:16:16.210Z,7.65
2018-01-10T16:18:44.623Z,7.60
2018-01-10T16:21:13.379Z,7.47
2018-01-10T16:23:41.722Z,7.28
2018-01-10T16:26:10.978Z,7.31
2018-01-10T16:28:39.421Z,7.44
2018-01-10T16:31:07.850Z,7.54
2018-01-10T16:33:36.341Z,7.60
2018-01-10T16:36:04.678Z,7.67
2018-01-10T16:38:33.030Z,7.72
2018-01-10T16:41:01.348Z,7.82
2018-01-10T16:43:29.711Z,7.83
2018-01-10T16:45:58.047Z,7.84
2018-01-10T16:48:26.381Z,7.87
2018-01-10T16:50:54.730Z,7.81
2018-01-10T16:53:23.050Z,7.72
2018-01-10T16:55:51.393Z,7.79
2018-01-10T16:58:19.714Z,7.79
2018-01-10T17:00:48.062Z,7.79
2018-01-10T17:03:16.602Z,7.82
2018-01-10T17:05:44.946Z,7.88
2018-01-10T17:08:13.274Z,7.87
2018-01-10T17:10:41.613Z,7.70
2018-01-10T17:13:09.942Z,7.72
2018-01-10T17:15:38.290Z,7.42
2018-01-10T17:18:06.626Z,7.38
2018-01-10T17:20:38.104Z,7.43
2018-01-10T17:23:06.797Z,7.34
2018-01-10T17:25:35.146Z,7.37
2018-01-10T17:28:03.521Z,7.35
2018-01-10T17:30:31.961Z,7.48
2018-01-10T17:33:01.756Z,7.55
2018-01-10T17:35:30.543Z,7.53
2018-01-10T17:37:59.097Z,7.32
2018-01-10T17:40:27.678Z,7.09
2018-01-10T17:42:56.001Z,7.06
2018-01-10T17:45:24.813Z,7.04
2018-01-10T17:47:53.170Z,6.93
2018-01-10T17:50:21.521Z,7.07
2018-01-10T17:52:49.859Z,7.07
2018-01-10T17:55:18.541Z,7.03
2018-01-10T17:57:46.949Z,7.21
2018-01-10T18:00:15.436Z,7.28
2018-01-10T18:02:43.762Z,7.05
2018-01-10T18:05:12.146Z,7.03
2018-01-10T18:07:40.506Z,6.80
2018-01-10T18:10:08.854Z,6.94
2018-01-10T18:12:37.182Z,6.68
2018-01-10T18:15:05.658Z,6.86
2018-01-10T18:17:33.980Z,6.66
2018-01-10T18:20:02.319Z,6.86
2018-01-10T18:22:30.666Z,6.91
2018-01-10T18:24:59.835Z,6.80
2018-01-10T18:27:28.162Z,6.83
2018-01-10T18:29:56.518Z,6.94
2018-01-10T18:32:24.855Z,6.92
2018-01-10T18:34:53.206Z,6.87
2018-01-10T18:37:21.623Z,6.87
2018-01-10T18:39:49.995Z,6.91
2018-01-10T18:42:18.326Z,6.98
2018-01-10T18:44:47.383Z,6.92
2018-01-10T18:47:15.711Z,6.83
2018-01-10T18:49:44.067Z,6.92
2018-01-10T18:52:12.395Z,6.98
2018-01-10T18:54:40.745Z,6.99
2018-01-10T18:57:09.186Z,7.01
2018-01-10T18:59:37.518Z,6.91
2018-01-10T19:02:05.866Z,6.90
2018-01-10T19:04:35.279Z,7.02
2018-01-10T19:07:03.633Z,6.98
2018-01-10T19:09:31.962Z,6.97
2018-01-10T19:12:00.318Z,7.03
2018-01-10T19:14:28.673Z,7.15
2018-01-10T19:16:56.986Z,7.13
2018-01-10T19:19:25.305Z,7.49
2018-01-10T19:21:53.662Z,7.49
2018-01-10T19:24:21.986Z,7.32
2018-01-10T19:26:50.329Z,7.37
2018-01-10T19:29:18.653Z,7.21
2018-01-10T19:31:47.006Z,7.18
2018-01-10T19:34:15.432Z,7.21
2018-01-10T19:36:44.395Z,7.38
2018-01-10T19:39:12.695Z,7.30
2018-01-10T19:41:41.046Z,7.22
2018-01-10T19:44:10.250Z,7.27
2018-01-10T19:46:38.600Z,7.20
2018-01-10T19:49:07.759Z,7.13
2018-01-10T19:51:36.102Z,7.25
2018-01-10T19:54:04.434Z,7.26
2018-01-10T19:56:32.774Z,7.21
2018-01-10T19:59:01.104Z,7.17
2018-01-10T20:01:29.441Z,7.18
2018-01-10T20:03:57.867Z,7.11
2018-01-10T20:06:26.206Z,7.03
2018-01-10T20:08:54.518Z,6.92
2018-01-10T20:11:22.889Z,6.80
2018-01-10T20:13:51.205Z,6.72
2018-01-10T20:16:19.549Z,6.77
2018-01-10T20:18:47.867Z,6.82
2018-01-10T20:21:16.205Z,6.61
2018-01-10T20:23:44.564Z,6.57
2018-01-10T20:26:12.906Z,6.64
2018-01-10T20:28:41.228Z,6.67
2018-01-10T20:31:09.570Z,6.67
2018-01-10T20:33:37.898Z,6.63
2018-01-10T20:36:06.289Z,6.65
2018-01-10T20:38:34.690Z,6.60
2018-01-10T20:41:03.251Z,6.56
2018-01-10T20:43:32.407Z,6.53
2018-01-10T20:46:00.762Z,6.48
2018-01-10T20:48:32.311Z,6.53
2018-01-10T20:51:01.472Z,6.38
2018-01-10T20:53:29.790Z,6.35
2018-01-10T20:55:58.131Z,6.12
2018-01-10T20:58:26.450Z,6.00
2018-01-10T21:00:54.805Z,6.16
2018-01-10T21:03:23.188Z,6.19
2018-01-10T21:05:51.912Z,6.10
2018-01-10T21:08:20.254Z,6.10
2018-01-10T21:10:48.595Z,6.10
2018-01-10T21:13:16.934Z,6.09
2018-01-10T21:15:45.462Z,6.11
2018-01-10T21:18:13.846Z,6.04
2018-01-10T21:20:42.165Z,6.01
2018-01-10T21:23:10.515Z,5.89
2018-01-10T21:25:39.522Z,5.92
2018-01-10T21:28:07.861Z,5.96
2018-01-10T21:30:36.191Z,5.87
2018-01-10T21:33:04.534Z,5.86
2018-01-10T21:35:32.853Z,5.86
2018-01-10T21:38:01.198Z,5.86
2018-01-10T21:40:29.525Z,5.86
2018-01-10T21:42:57.870Z,5.67
2018-01-10T21:45:27.066Z,5.52
2018-01-10T21:47:55.414Z,5.50
2018-01-10T21:50:23.734Z,5.35
2018-01-10T21:52:52.078Z,5.07
2018-01-10T21:55:20.399Z,4.98
2018-01-10T21:57:48.741Z,4.67
2018-01-10T22:00:17.287Z,4.55
2018-01-10T22:02:45.741Z,4.54
2018-01-10T22:05:14.090Z,4.64
2018-01-10T22:07:42.456Z,4.86
2018-01-10T22:10:10.795Z,4.99
2018-01-10T22:12:39.133Z,5.05
2018-01-10T22:15:07.457Z,5.09
2018-01-10T22:17:35.842Z,5.14
2018-01-10T22:20:04.166Z,5.02
2018-01-10T22:22:32.521Z,5.11
2018-01-10T22:25:00.838Z,5.04
2018-01-10T22:27:29.174Z,4.96
2018-01-10T22:29:57.518Z,4.81
2018-01-10T22:32:25.867Z,4.78
2018-01-10T22:34:54.187Z,4.79
2018-01-10T22:37:22.521Z,4.67
2018-01-10T22:39:50.840Z,4.56
2018-01-10T22:42:19.177Z,4.56
2018-01-10T22:44:47.493Z,4.76
2018-01-10T22:47:15.834Z,4.69
2018-01-10T22:49:44.157Z,4.59
2018-01-10T22:52:12.489Z,4.55
2018-01-10T22:54:40.811Z,4.41
2018-01-10T22:57:09.154Z,4.39
2018-01-10T22:59:37.470Z,4.45
2018-01-10T23:02:05.809Z,4.22
2018-01-10T23:04:34.128Z,4.06
2018-01-10T23:07:02.447Z,4.25
2018-01-10T23:09:30.794Z,4.17
2018-01-10T23:11:59.113Z,4.36
2018-01-10T23:14:27.450Z,4.40
2018-01-10T23:16:55.765Z,4.40
2018-01-10T23:19:24.106Z,4.04
2018-01-10T23:21:52.425Z,4.13
2018-01-10T23:24:20.766Z,4.13
2018-01-10T23:26:49.091Z,4.13
2018-01-10T23:29:17.430Z,4.23
2018-01-10T23:31:45.741Z,4.30
2018-01-10T23:34:14.078Z,4.34
2018-01-10T23:36:42.393Z,4.36
2018-01-10T23:39:10.740Z,4.29
2018-01-10T23:41:39.057Z,4.20
2018-01-10T23:44:07.394Z,4.28
2018-01-10T23:46:35.714Z,4.27
2018-01-10T23:49:04.049Z,4.24
2018-01-10T23:51:32.366Z,4.07
2018-01-10T23:54:00.706Z,4.12
2018-01-10T23:56:29.034Z,3.95
2018-01-10T23:58:57.373Z,3.80
